createdAt,value
2022-10-23T00:04:46.479Z,16.70
2022-10-23T00:09:49.428Z,18.30
2022-10-23T00:14:52.382Z,16.90
2022-10-23T00:19:55.334Z,16.70
2022-10-23T00:24:58.284Z,17.70
2022-10-23T00:30:03.046Z,17.50
2022-10-23T00:35:06.660Z,16.60
2022-10-23T00:40:10.306Z,19.60
2022-10-23T00:45:31.238Z,17.20
2022-10-23T00:50:34.240Z,17.00
2022-10-23T00:55:38.962Z,18.20
2022-10-23T01:00:46.011Z,16.30
2022-10-23T01:06:03.249Z,16.20
2022-10-23T01:11:38.242Z,19.40
2022-10-23T01:17:15.899Z,17.00
2022-10-23T01:22:33.254Z,15.70
2022-10-23T01:27:48.490Z,16.40
2022-10-23T01:33:02.450Z,16.50
2022-10-23T01:38:21.008Z,19.30
2022-10-23T01:43:34.504Z,16.80
2022-10-23T01:48:37.992Z,15.30
2022-10-23T01:58:49.524Z,17.30
2022-10-23T02:03:53.841Z,18.20
2022-10-23T02:08:57.094Z,21.80
2022-10-23T02:14:42.098Z,21.00
2022-10-23T02:20:03.019Z,21.30
2022-10-23T02:25:11.558Z,21.60
2022-10-23T02:30:18.352Z,22.20
2022-10-23T02:35:24.275Z,21.40
2022-10-23T02:40:44.424Z,21.80
2022-10-23T02:45:59.999Z,22.90
2022-10-23T02:51:56.072Z,24.60
2022-10-23T02:57:31.157Z,23.30
2022-10-23T03:02:44.285Z,23.70
2022-10-23T03:07:47.708Z,23.20
2022-10-23T03:12:50.982Z,22.80
2022-10-23T03:17:53.880Z,23.30
2022-10-23T03:22:56.785Z,23.80
2022-10-23T03:28:00.360Z,23.60
2022-10-23T03:33:03.243Z,24.40
2022-10-23T03:38:06.260Z,23.00
2022-10-23T03:43:09.323Z,22.40
2022-10-23T03:48:12.276Z,22.50
2022-10-23T03:53:15.175Z,23.30
2022-10-23T03:58:18.101Z,23.10
2022-10-23T04:03:21.014Z,23.60
2022-10-23T04:08:23.909Z,24.50
2022-10-23T04:13:27.099Z,23.10
2022-10-23T04:18:30.155Z,24.20
2022-10-23T04:23:33.313Z,24.40
2022-10-23T04:28:36.257Z,24.60
2022-10-23T04:33:39.166Z,24.90
2022-10-23T04:38:42.118Z,23.20
2022-10-23T04:43:45.045Z,22.60
2022-10-23T04:48:47.981Z,23.00
2022-10-23T04:53:50.871Z,23.80
2022-10-23T04:58:54.929Z,24.30
2022-10-23T05:03:57.886Z,24.20
2022-10-23T05:09:00.803Z,23.70
2022-10-23T05:14:03.718Z,22.70
2022-10-23T05:19:10.187Z,24.70
2022-10-23T05:24:13.102Z,24.60
2022-10-23T05:29:15.984Z,22.20
2022-10-23T05:34:23.118Z,21.60
2022-10-23T05:39:26.589Z,23.10
2022-10-23T05:49:32.284Z,24.10
2022-10-23T05:54:35.266Z,24.60
2022-10-23T05:59:38.310Z,24.00
2022-10-23T06:04:41.270Z,23.90
2022-10-23T06:09:44.174Z,27.10
2022-10-23T06:14:47.466Z,24.30
2022-10-23T06:19:50.868Z,26.10
2022-10-23T06:24:54.128Z,23.20
2022-10-23T06:29:57.053Z,24.60
2022-10-23T06:34:59.955Z,23.30
2022-10-23T06:40:02.898Z,24.60
2022-10-23T06:45:07.337Z,21.60
2022-10-23T06:50:13.092Z,28.60
2022-10-23T06:55:19.294Z,24.40
2022-10-23T07:00:22.246Z,23.40
2022-10-23T07:05:25.146Z,60.20
2022-10-23T07:10:28.076Z,23.00
2022-10-23T07:15:31.303Z,23.70
2022-10-23T07:20:34.607Z,25.00
2022-10-23T07:25:38.063Z,26.60
2022-10-23T07:35:46.260Z,22.40
2022-10-23T07:40:49.232Z,20.50
2022-10-23T07:45:53.222Z,21.10
2022-10-23T07:51:01.954Z,25.10
2022-10-23T07:56:16.732Z,22.00
2022-10-23T08:01:27.906Z,22.00
2022-10-23T08:06:31.058Z,20.50
2022-10-23T08:11:35.830Z,20.30
2022-10-23T08:16:39.510Z,19.80
2022-10-23T08:21:42.445Z,20.30
2022-10-23T08:26:45.355Z,18.30
2022-10-23T08:31:48.252Z,20.20
2022-10-23T08:36:51.452Z,21.10
2022-10-23T08:41:54.674Z,18.70
2022-10-23T08:47:18.610Z,17.30
2022-10-23T08:52:46.076Z,18.80
2022-10-23T08:58:33.001Z,20.70
2022-10-23T09:03:35.969Z,16.30
2022-10-23T09:08:52.237Z,17.90
2022-10-23T09:14:35.768Z,16.00
2022-10-23T09:19:38.953Z,17.50
2022-10-23T09:24:44.728Z,14.90
2022-10-23T09:29:55.185Z,20.80
2022-10-23T09:34:58.144Z,18.60
2022-10-23T09:40:25.367Z,18.20
2022-10-23T09:45:34.843Z,16.30
2022-10-23T09:50:38.004Z,17.30
2022-10-23T09:55:40.940Z,16.50
2022-10-23T10:00:49.254Z,30.60
2022-10-23T10:06:01.452Z,17.50
2022-10-23T10:11:37.633Z,15.40
2022-10-23T10:17:04.653Z,12.80
2022-10-23T10:22:34.359Z,17.30
2022-10-23T10:27:46.898Z,14.00
2022-10-23T10:33:02.751Z,14.80
2022-10-23T10:38:41.491Z,14.70
2022-10-23T10:43:53.351Z,14.40
2022-10-23T10:49:20.968Z,15.60
2022-10-23T10:54:46.539Z,19.10
2022-10-23T10:59:53.487Z,19.00
2022-10-23T11:05:20.726Z,11.10
2022-10-23T11:10:23.866Z,21.80
2022-10-23T11:15:41.180Z,11.60
2022-10-23T11:21:14.716Z,12.50
2022-10-23T11:27:02.132Z,20.00
2022-10-23T11:32:43.701Z,24.30
2022-10-23T11:37:58.381Z,13.50
2022-10-23T11:43:01.357Z,12.40
2022-10-23T11:48:23.798Z,8.80
2022-10-23T11:53:46.965Z,10.20
2022-10-23T11:58:56.556Z,39.30
2022-10-23T12:04:38.607Z,14.30
2022-10-23T12:09:46.466Z,22.70
2022-10-23T12:14:51.407Z,20.60
2022-10-23T12:20:19.830Z,15.70
2022-10-23T12:25:53.436Z,43.60
2022-10-23T12:31:17.806Z,24.00
2022-10-23T12:36:39.413Z,26.00
2022-10-23T12:41:42.964Z,18.90
2022-10-23T12:46:51.523Z,13.30
2022-10-23T12:52:18.433Z,42.80
2022-10-23T12:57:30.380Z,28.40
2022-10-23T13:07:44.695Z,10.10
2022-10-23T13:13:00.764Z,18.10
2022-10-23T13:18:07.095Z,26.70
2022-10-23T13:23:36.136Z,17.00
2022-10-23T13:28:44.531Z,18.00
2022-10-23T13:34:05.401Z,16.80
2022-10-23T13:39:11.568Z,13.30
2022-10-23T13:44:18.131Z,16.20
2022-10-23T13:49:21.139Z,9.80
2022-10-23T13:59:35.860Z,25.00
2022-10-23T14:09:41.620Z,14.30
2022-10-23T14:14:44.528Z,13.90
2022-10-23T14:19:47.609Z,12.00
2022-10-23T14:24:50.764Z,14.00
2022-10-23T14:29:53.667Z,8.60
2022-10-23T14:34:56.539Z,7.50
2022-10-23T14:39:59.840Z,14.40
2022-10-23T14:50:07.258Z,16.30
2022-10-23T14:55:10.165Z,14.50
2022-10-23T15:00:13.799Z,12.20
2022-10-23T15:05:17.273Z,9.80
2022-10-23T15:10:20.233Z,9.70
2022-10-23T15:15:23.952Z,8.90
2022-10-23T15:20:27.325Z,9.90
2022-10-23T15:30:33.676Z,18.10
2022-10-23T15:35:36.648Z,20.30
2022-10-23T15:40:39.870Z,19.30
2022-10-23T15:45:43.283Z,25.00
2022-10-23T15:55:48.970Z,28.30
2022-10-23T16:00:51.894Z,22.30
2022-10-23T16:05:54.799Z,26.40
2022-10-23T16:10:59.727Z,26.10
2022-10-23T16:16:06.368Z,40.90
2022-10-23T16:21:37.794Z,29.40
2022-10-23T16:26:41.074Z,23.00
2022-10-23T16:31:43.991Z,26.20
2022-10-23T16:36:47.512Z,25.90
2022-10-23T16:41:50.460Z,24.00
2022-10-23T16:46:56.597Z,22.30
2022-10-23T16:51:59.506Z,22.50
2022-10-23T16:57:02.387Z,23.60
2022-10-23T17:02:05.492Z,22.30
2022-10-23T17:07:08.573Z,26.20
2022-10-23T17:12:11.542Z,22.50
2022-10-23T17:17:14.499Z,22.30
2022-10-23T17:22:17.468Z,22.20
2022-10-23T17:27:20.451Z,22.80
2022-10-23T17:32:23.365Z,24.00
2022-10-23T17:37:26.342Z,23.60
2022-10-23T17:42:29.695Z,33.50
2022-10-23T17:47:32.598Z,27.40
2022-10-23T17:52:36.536Z,23.40
2022-10-23T17:57:39.935Z,24.30
2022-10-23T18:07:45.984Z,20.30
2022-10-23T18:12:49.121Z,20.40
2022-10-23T18:17:52.048Z,27.60
2022-10-23T18:22:55.055Z,25.30
2022-10-23T18:28:01.751Z,32.50
2022-10-23T18:33:05.516Z,32.50
2022-10-23T18:38:09.881Z,25.20
2022-10-23T18:43:15.170Z,27.40
2022-10-23T18:48:23.129Z,26.20
2022-10-23T18:53:26.153Z,24.50
2022-10-23T18:58:29.080Z,32.10
2022-10-23T19:03:33.517Z,17.00
2022-10-23T19:08:39.093Z,12.50
2022-10-23T19:13:43.025Z,16.20
2022-10-23T19:18:51.308Z,18.20
2022-10-23T19:23:54.243Z,16.60
2022-10-23T19:28:58.202Z,18.60
2022-10-23T19:34:01.445Z,16.10
2022-10-23T19:39:04.493Z,15.60
2022-10-23T19:44:07.636Z,13.60
2022-10-23T19:49:11.093Z,26.50
2022-10-23T19:59:18.535Z,28.60
2022-10-23T20:04:21.416Z,40.00
2022-10-23T20:09:24.363Z,28.40
2022-10-23T20:14:27.579Z,30.40
2022-10-23T20:19:30.574Z,27.00
2022-10-23T20:24:33.667Z,33.40
2022-10-23T20:29:36.949Z,43.40
2022-10-23T20:34:40.059Z,37.20
2022-10-23T20:39:43.668Z,42.70
2022-10-23T20:44:46.587Z,45.10
2022-10-23T20:49:49.503Z,31.20
2022-10-23T20:54:52.416Z,34.40
2022-10-23T20:59:58.297Z,30.70
2022-10-23T21:05:01.178Z,27.10
2022-10-23T21:10:05.502Z,30.20
2022-10-23T21:15:09.622Z,34.40
2022-10-23T21:20:12.537Z,41.20
2022-10-23T21:25:15.559Z,39.40
2022-10-23T21:30:18.606Z,39.10
2022-10-23T21:35:22.142Z,41.20
2022-10-23T21:40:26.439Z,42.50
2022-10-23T21:45:29.647Z,40.60
2022-10-23T21:50:32.590Z,41.20
2022-10-23T21:55:35.501Z,41.20
2022-10-23T22:00:38.422Z,36.50
2022-10-23T22:05:41.325Z,38.80
2022-10-23T22:10:44.252Z,38.60
2022-10-23T22:15:47.184Z,34.90
2022-10-23T22:20:50.126Z,34.30
2022-10-23T22:25:53.162Z,36.30
2022-10-23T22:30:56.062Z,32.70
2022-10-23T22:36:03.596Z,32.00
2022-10-23T22:41:07.487Z,29.90
2022-10-23T22:46:14.001Z,29.80
2022-10-23T22:51:19.909Z,29.50
2022-10-23T22:56:27.150Z,28.90
2022-10-23T23:01:39.466Z,29.80
2022-10-23T23:06:42.499Z,27.70
2022-10-23T23:11:52.052Z,26.40
2022-10-23T23:16:55.359Z,26.40
2022-10-23T23:21:59.356Z,24.00
2022-10-23T23:27:02.366Z,24.80
2022-10-23T23:32:06.322Z,27.30
2022-10-23T23:37:09.238Z,24.00
2022-10-23T23:42:12.129Z,21.90
2022-10-23T23:47:15.068Z,23.60
2022-10-23T23:52:18.052Z,25.10
2022-10-23T23:57:20.980Z,22.10
